sensor_id;sensor_type;location;lat;lon;timestamp;P1;durP1;ratioP1;P2;durP2;ratioP2
12155;SDS011;6141;49.092;8.516;2023-08-21T00:01:18;9.33;;;5.37;;
12155;SDS011;6141;49.092;8.516;2023-08-21T00:03:47;9.23;;;4.97;;
12155;SDS011;6141;49.092;8.516;2023-08-21T00:06:16;5.83;;;4.93;;
12155;SDS011;6141;49.092;8.516;2023-08-21T00:08:44;8.30;;;5.00;;
12155;SDS011;6141;49.092;8.516;2023-08-21T00:11:12;8.53;;;5.10;;
12155;SDS011;6141;49.092;8.516;2023-08-21T00:13:40;9.00;;;5.83;;
12155;SDS011;6141;49.092;8.516;2023-08-21T00:16:11;6.17;;;4.93;;
12155;SDS011;6141;49.092;8.516;2023-08-21T00:18:39;6.03;;;5.17;;
12155;SDS011;6141;49.092;8.516;2023-08-21T00:21:07;8.20;;;5.03;;
12155;SDS011;6141;49.092;8.516;2023-08-21T00:23:37;5.67;;;5.07;;
12155;SDS011;6141;49.092;8.516;2023-08-21T00:26:05;7.30;;;5.47;;
12155;SDS011;6141;49.092;8.516;2023-08-21T00:28:33;5.10;;;4.60;;
12155;SDS011;6141;49.092;8.516;2023-08-21T00:31:01;5.47;;;4.97;;
12155;SDS011;6141;49.092;8.516;2023-08-21T00:33:30;7.03;;;5.47;;
12155;SDS011;6141;49.092;8.516;2023-08-21T00:35:59;7.40;;;6.33;;
12155;SDS011;6141;49.092;8.516;2023-08-21T00:38:28;7.27;;;5.87;;
12155;SDS011;6141;49.092;8.516;2023-08-21T00:40:59;7.73;;;5.00;;
12155;SDS011;6141;49.092;8.516;2023-08-21T00:43:27;7.43;;;5.00;;
12155;SDS011;6141;49.092;8.516;2023-08-21T00:45:55;6.50;;;5.67;;
12155;SDS011;6141;49.092;8.516;2023-08-21T00:48:24;7.03;;;5.67;;
12155;SDS011;6141;49.092;8.516;2023-08-21T00:50:53;8.00;;;6.10;;
12155;SDS011;6141;49.092;8.516;2023-08-21T00:53:21;8.77;;;5.50;;
12155;SDS011;6141;49.092;8.516;2023-08-21T00:55:51;6.40;;;4.97;;
12155;SDS011;6141;49.092;8.516;2023-08-21T00:58:20;4.33;;;3.93;;
12155;SDS011;6141;49.092;8.516;2023-08-21T01:00:48;6.93;;;5.40;;
12155;SDS011;6141;49.092;8.516;2023-08-21T01:03:19;7.20;;;4.83;;
12155;SDS011;6141;49.092;8.516;2023-08-21T01:05:48;6.77;;;5.27;;
12155;SDS011;6141;49.092;8.516;2023-08-21T01:08:18;5.90;;;5.27;;
12155;SDS011;6141;49.092;8.516;2023-08-21T01:10:54;6.00;;;5.17;;
12155;SDS011;6141;49.092;8.516;2023-08-21T01:13:33;7.27;;;5.03;;
12155;SDS011;6141;49.092;8.516;2023-08-21T01:16:09;7.20;;;5.43;;
12155;SDS011;6141;49.092;8.516;2023-08-21T01:18:40;9.73;;;5.60;;
12155;SDS011;6141;49.092;8.516;2023-08-21T01:21:09;7.30;;;5.30;;
12155;SDS011;6141;49.092;8.516;2023-08-21T01:23:40;6.30;;;4.30;;
12155;SDS011;6141;49.092;8.516;2023-08-21T01:26:09;6.97;;;5.10;;
12155;SDS011;6141;49.092;8.516;2023-08-21T01:28:38;6.70;;;5.03;;
12155;SDS011;6141;49.092;8.516;2023-08-21T01:31:07;6.63;;;4.47;;
12155;SDS011;6141;49.092;8.516;2023-08-21T01:33:40;4.10;;;3.70;;
12155;SDS011;6141;49.092;8.516;2023-08-21T01:36:13;7.60;;;4.80;;
12155;SDS011;6141;49.092;8.516;2023-08-21T01:38:44;5.40;;;4.90;;
12155;SDS011;6141;49.092;8.516;2023-08-21T01:41:12;5.43;;;4.80;;
12155;SDS011;6141;49.092;8.516;2023-08-21T01:43:40;6.73;;;5.00;;
12155;SDS011;6141;49.092;8.516;2023-08-21T01:46:09;5.93;;;5.30;;
12155;SDS011;6141;49.092;8.516;2023-08-21T01:48:38;9.57;;;6.00;;
12155;SDS011;6141;49.092;8.516;2023-08-21T01:51:06;8.30;;;5.20;;
12155;SDS011;6141;49.092;8.516;2023-08-21T01:53:34;7.40;;;4.73;;
12155;SDS011;6141;49.092;8.516;2023-08-21T01:56:04;14.87;;;5.50;;
12155;SDS011;6141;49.092;8.516;2023-08-21T01:58:33;8.20;;;5.53;;
12155;SDS011;6141;49.092;8.516;2023-08-21T02:01:01;8.87;;;5.47;;
12155;SDS011;6141;49.092;8.516;2023-08-21T02:03:30;9.07;;;5.40;;
12155;SDS011;6141;49.092;8.516;2023-08-21T02:05:58;6.23;;;4.80;;
12155;SDS011;6141;49.092;8.516;2023-08-21T02:08:26;6.03;;;4.70;;
12155;SDS011;6141;49.092;8.516;2023-08-21T02:10:59;6.57;;;4.70;;
12155;SDS011;6141;49.092;8.516;2023-08-21T02:13:29;5.70;;;4.53;;
12155;SDS011;6141;49.092;8.516;2023-08-21T02:16:00;10.27;;;5.20;;
12155;SDS011;6141;49.092;8.516;2023-08-21T02:18:28;5.57;;;4.83;;
12155;SDS011;6141;49.092;8.516;2023-08-21T02:20:56;6.90;;;4.70;;
12155;SDS011;6141;49.092;8.516;2023-08-21T02:23:24;7.00;;;4.57;;
12155;SDS011;6141;49.092;8.516;2023-08-21T02:25:53;5.13;;;4.20;;
12155;SDS011;6141;49.092;8.516;2023-08-21T02:28:21;5.00;;;4.50;;
12155;SDS011;6141;49.092;8.516;2023-08-21T02:30:51;6.50;;;3.47;;
12155;SDS011;6141;49.092;8.516;2023-08-21T02:33:20;5.60;;;4.13;;
12155;SDS011;6141;49.092;8.516;2023-08-21T02:35:48;6.40;;;4.70;;
12155;SDS011;6141;49.092;8.516;2023-08-21T02:38:16;8.17;;;5.40;;
12155;SDS011;6141;49.092;8.516;2023-08-21T02:40:44;6.33;;;4.90;;
12155;SDS011;6141;49.092;8.516;2023-08-21T02:43:12;5.27;;;4.50;;
12155;SDS011;6141;49.092;8.516;2023-08-21T02:45:40;4.80;;;4.27;;
12155;SDS011;6141;49.092;8.516;2023-08-21T02:48:09;4.97;;;4.43;;
12155;SDS011;6141;49.092;8.516;2023-08-21T02:50:37;4.37;;;4.07;;
12155;SDS011;6141;49.092;8.516;2023-08-21T02:53:06;5.27;;;4.23;;
12155;SDS011;6141;49.092;8.516;2023-08-21T02:55:34;5.37;;;4.87;;
12155;SDS011;6141;49.092;8.516;2023-08-21T02:58:02;7.57;;;5.00;;
12155;SDS011;6141;49.092;8.516;2023-08-21T03:00:30;6.13;;;5.27;;
12155;SDS011;6141;49.092;8.516;2023-08-21T03:02:59;5.13;;;4.63;;
12155;SDS011;6141;49.092;8.516;2023-08-21T03:05:28;8.30;;;5.57;;
12155;SDS011;6141;49.092;8.516;2023-08-21T03:07:56;7.40;;;5.60;;
12155;SDS011;6141;49.092;8.516;2023-08-21T03:10:24;5.87;;;4.83;;
12155;SDS011;6141;49.092;8.516;2023-08-21T03:12:54;6.37;;;4.83;;
12155;SDS011;6141;49.092;8.516;2023-08-21T03:15:22;7.83;;;5.17;;
12155;SDS011;6141;49.092;8.516;2023-08-21T03:17:50;9.63;;;4.73;;
12155;SDS011;6141;49.092;8.516;2023-08-21T03:20:19;7.30;;;4.87;;
12155;SDS011;6141;49.092;8.516;2023-08-21T03:22:48;9.77;;;5.07;;
12155;SDS011;6141;49.092;8.516;2023-08-21T03:25:17;6.27;;;4.90;;
12155;SDS011;6141;49.092;8.516;2023-08-21T03:27:45;6.27;;;5.20;;
12155;SDS011;6141;49.092;8.516;2023-08-21T03:30:16;6.70;;;5.17;;
12155;SDS011;6141;49.092;8.516;2023-08-21T03:32:44;6.80;;;5.10;;
12155;SDS011;6141;49.092;8.516;2023-08-21T03:35:12;5.77;;;5.20;;
12155;SDS011;6141;49.092;8.516;2023-08-21T03:37:41;6.33;;;4.70;;
12155;SDS011;6141;49.092;8.516;2023-08-21T03:40:13;6.23;;;5.10;;
12155;SDS011;6141;49.092;8.516;2023-08-21T03:42:42;11.20;;;5.00;;
12155;SDS011;6141;49.092;8.516;2023-08-21T03:45:10;8.17;;;5.17;;
12155;SDS011;6141;49.092;8.516;2023-08-21T03:47:38;8.03;;;5.40;;
12155;SDS011;6141;49.092;8.516;2023-08-21T03:50:14;5.80;;;5.03;;
12155;SDS011;6141;49.092;8.516;2023-08-21T03:52:43;6.83;;;5.20;;
12155;SDS011;6141;49.092;8.516;2023-08-21T03:55:11;7.43;;;5.40;;
12155;SDS011;6141;49.092;8.516;2023-08-21T03:57:40;5.03;;;4.63;;
12155;SDS011;6141;49.092;8.516;2023-08-21T04:00:08;6.93;;;4.53;;
12155;SDS011;6141;49.092;8.516;2023-08-21T04:02:41;5.37;;;4.87;;
12155;SDS011;6141;49.092;8.516;2023-08-21T04:05:10;5.33;;;4.80;;
12155;SDS011;6141;49.092;8.516;2023-08-21T04:07:38;5.47;;;4.97;;
12155;SDS011;6141;49.092;8.516;2023-08-21T04:10:07;10.40;;;5.30;;
12155;SDS011;6141;49.092;8.516;2023-08-21T04:12:35;5.73;;;4.80;;
12155;SDS011;6141;49.092;8.516;2023-08-21T04:15:05;5.37;;;4.87;;
12155;SDS011;6141;49.092;8.516;2023-08-21T04:17:34;5.30;;;4.57;;
12155;SDS011;6141;49.092;8.516;2023-08-21T04:20:04;6.23;;;5.63;;
12155;SDS011;6141;49.092;8.516;2023-08-21T04:22:33;5.40;;;4.90;;
12155;SDS011;6141;49.092;8.516;2023-08-21T04:25:02;5.43;;;4.63;;
12155;SDS011;6141;49.092;8.516;2023-08-21T04:27:30;5.50;;;3.50;;
12155;SDS011;6141;49.092;8.516;2023-08-21T04:29:59;4.97;;;3.60;;
12155;SDS011;6141;49.092;8.516;2023-08-21T04:32:29;3.80;;;3.40;;
12155;SDS011;6141;49.092;8.516;2023-08-21T04:34:57;4.90;;;4.50;;
12155;SDS011;6141;49.092;8.516;2023-08-21T04:37:26;5.37;;;4.80;;
12155;SDS011;6141;49.092;8.516;2023-08-21T04:39:54;6.37;;;4.80;;
12155;SDS011;6141;49.092;8.516;2023-08-21T04:42:22;6.50;;;4.77;;
12155;SDS011;6141;49.092;8.516;2023-08-21T04:44:50;6.10;;;4.00;;
12155;SDS011;6141;49.092;8.516;2023-08-21T04:47:19;2.90;;;2.70;;
12155;SDS011;6141;49.092;8.516;2023-08-21T04:49:53;2.73;;;2.53;;
12155;SDS011;6141;49.092;8.516;2023-08-21T04:52:23;3.00;;;2.80;;
12155;SDS011;6141;49.092;8.516;2023-08-21T04:54:52;3.70;;;3.40;;
12155;SDS011;6141;49.092;8.516;2023-08-21T04:57:21;4.23;;;3.83;;
12155;SDS011;6141;49.092;8.516;2023-08-21T04:59:49;5.07;;;4.03;;
12155;SDS011;6141;49.092;8.516;2023-08-21T05:02:20;4.77;;;4.37;;
12155;SDS011;6141;49.092;8.516;2023-08-21T05:04:49;5.60;;;4.83;;
12155;SDS011;6141;49.092;8.516;2023-08-21T05:07:19;4.77;;;4.37;;
12155;SDS011;6141;49.092;8.516;2023-08-21T05:09:48;6.10;;;4.87;;
12155;SDS011;6141;49.092;8.516;2023-08-21T05:12:19;5.77;;;5.07;;
12155;SDS011;6141;49.092;8.516;2023-08-21T05:14:47;5.23;;;4.73;;
12155;SDS011;6141;49.092;8.516;2023-08-21T05:17:16;6.17;;;4.97;;
12155;SDS011;6141;49.092;8.516;2023-08-21T05:19:45;4.90;;;4.50;;
12155;SDS011;6141;49.092;8.516;2023-08-21T05:22:13;4.43;;;4.03;;
12155;SDS011;6141;49.092;8.516;2023-08-21T05:24:43;6.07;;;4.83;;
12155;SDS011;6141;49.092;8.516;2023-08-21T05:27:11;5.87;;;5.20;;
12155;SDS011;6141;49.092;8.516;2023-08-21T05:29:40;8.30;;;5.60;;
12155;SDS011;6141;49.092;8.516;2023-08-21T05:32:08;6.40;;;5.27;;
12155;SDS011;6141;49.092;8.516;2023-08-21T05:34:36;7.30;;;5.80;;
12155;SDS011;6141;49.092;8.516;2023-08-21T05:37:06;7.90;;;5.90;;
12155;SDS011;6141;49.092;8.516;2023-08-21T05:39:34;6.30;;;5.77;;
12155;SDS011;6141;49.092;8.516;2023-08-21T05:42:04;5.73;;;5.23;;
12155;SDS011;6141;49.092;8.516;2023-08-21T05:44:33;7.57;;;5.97;;
12155;SDS011;6141;49.092;8.516;2023-08-21T05:47:01;7.20;;;6.50;;
12155;SDS011;6141;49.092;8.516;2023-08-21T05:49:29;8.57;;;5.97;;
12155;SDS011;6141;49.092;8.516;2023-08-21T05:51:57;8.97;;;6.40;;
12155;SDS011;6141;49.092;8.516;2023-08-21T05:54:25;7.27;;;6.43;;
12155;SDS011;6141;49.092;8.516;2023-08-21T05:56:55;9.33;;;6.93;;
12155;SDS011;6141;49.092;8.516;2023-08-21T05:59:30;8.03;;;7.23;;
12155;SDS011;6141;49.092;8.516;2023-08-21T06:02:01;8.60;;;7.13;;
12155;SDS011;6141;49.092;8.516;2023-08-21T06:04:31;8.57;;;7.50;;
12155;SDS011;6141;49.092;8.516;2023-08-21T06:07:01;12.20;;;8.50;;
12155;SDS011;6141;49.092;8.516;2023-08-21T06:09:29;8.20;;;7.17;;
12155;SDS011;6141;49.092;8.516;2023-08-21T06:11:58;8.37;;;7.47;;
12155;SDS011;6141;49.092;8.516;2023-08-21T06:14:30;8.37;;;7.67;;
12155;SDS011;6141;49.092;8.516;2023-08-21T06:17:00;10.17;;;8.67;;
12155;SDS011;6141;49.092;8.516;2023-08-21T06:19:29;10.47;;;7.27;;
12155;SDS011;6141;49.092;8.516;2023-08-21T06:21:58;8.93;;;7.27;;
12155;SDS011;6141;49.092;8.516;2023-08-21T06:24:26;9.17;;;7.87;;
12155;SDS011;6141;49.092;8.516;2023-08-21T06:26:59;10.37;;;7.43;;
12155;SDS011;6141;49.092;8.516;2023-08-21T06:29:30;9.03;;;7.47;;
12155;SDS011;6141;49.092;8.516;2023-08-21T06:31:59;8.63;;;7.60;;
12155;SDS011;6141;49.092;8.516;2023-08-21T06:34:29;10.53;;;7.70;;
12155;SDS011;6141;49.092;8.516;2023-08-21T06:36:57;11.10;;;7.73;;
12155;SDS011;6141;49.092;8.516;2023-08-21T06:39:26;8.97;;;7.60;;
12155;SDS011;6141;49.092;8.516;2023-08-21T06:41:54;10.90;;;8.03;;
12155;SDS011;6141;49.092;8.516;2023-08-21T06:44:31;8.83;;;7.47;;
12155;SDS011;6141;49.092;8.516;2023-08-21T06:47:01;9.13;;;7.53;;
12155;SDS011;6141;49.092;8.516;2023-08-21T06:49:30;8.40;;;7.50;;
12155;SDS011;6141;49.092;8.516;2023-08-21T06:51:59;8.60;;;7.80;;
12155;SDS011;6141;49.092;8.516;2023-08-21T06:54:28;9.13;;;8.10;;
12155;SDS011;6141;49.092;8.516;2023-08-21T06:56:56;8.90;;;8.00;;
12155;SDS011;6141;49.092;8.516;2023-08-21T06:59:25;9.10;;;7.97;;
12155;SDS011;6141;49.092;8.516;2023-08-21T07:01:54;9.27;;;7.27;;
12155;SDS011;6141;49.092;8.516;2023-08-21T07:04:22;10.00;;;7.60;;
12155;SDS011;6141;49.092;8.516;2023-08-21T07:06:50;11.13;;;7.83;;
12155;SDS011;6141;49.092;8.516;2023-08-21T07:09:18;9.17;;;7.13;;
12155;SDS011;6141;49.092;8.516;2023-08-21T07:11:47;13.67;;;7.23;;
12155;SDS011;6141;49.092;8.516;2023-08-21T07:14:15;9.37;;;7.03;;
12155;SDS011;6141;49.092;8.516;2023-08-21T07:16:43;8.93;;;6.57;;
12155;SDS011;6141;49.092;8.516;2023-08-21T07:19:13;8.80;;;6.77;;
12155;SDS011;6141;49.092;8.516;2023-08-21T07:21:41;9.83;;;7.37;;
12155;SDS011;6141;49.092;8.516;2023-08-21T07:24:09;7.43;;;6.70;;
12155;SDS011;6141;49.092;8.516;2023-08-21T07:26:37;8.80;;;6.77;;
12155;SDS011;6141;49.092;8.516;2023-08-21T07:29:05;10.67;;;6.90;;
12155;SDS011;6141;49.092;8.516;2023-08-21T07:31:34;10.02;;;7.05;;
12155;SDS011;6141;49.092;8.516;2023-08-21T07:34:02;7.13;;;6.43;;
12155;SDS011;6141;49.092;8.516;2023-08-21T07:36:32;7.72;;;6.90;;
12155;SDS011;6141;49.092;8.516;2023-08-21T07:39:00;10.20;;;7.03;;
12155;SDS011;6141;49.092;8.516;2023-08-21T07:41:28;9.93;;;6.33;;
12155;SDS011;6141;49.092;8.516;2023-08-21T07:43:56;8.35;;;7.20;;
12155;SDS011;6141;49.092;8.516;2023-08-21T07:46:24;12.60;;;6.93;;
12155;SDS011;6141;49.092;8.516;2023-08-21T07:48:53;7.82;;;6.75;;
12155;SDS011;6141;49.092;8.516;2023-08-21T07:51:22;8.95;;;7.20;;
12155;SDS011;6141;49.092;8.516;2023-08-21T07:53:51;7.22;;;6.53;;
12155;SDS011;6141;49.092;8.516;2023-08-21T07:56:19;8.23;;;6.65;;
12155;SDS011;6141;49.092;8.516;2023-08-21T07:58:47;7.05;;;6.22;;
12155;SDS011;6141;49.092;8.516;2023-08-21T08:01:16;7.97;;;6.15;;
12155;SDS011;6141;49.092;8.516;2023-08-21T08:03:46;8.15;;;6.85;;
12155;SDS011;6141;49.092;8.516;2023-08-21T08:06:18;8.90;;;7.53;;
12155;SDS011;6141;49.092;8.516;2023-08-21T08:08:46;9.45;;;6.57;;
12155;SDS011;6141;49.092;8.516;2023-08-21T08:11:15;7.47;;;6.70;;
12155;SDS011;6141;49.092;8.516;2023-08-21T08:13:43;8.18;;;6.50;;
12155;SDS011;6141;49.092;8.516;2023-08-21T08:16:12;10.20;;;7.07;;
12155;SDS011;6141;49.092;8.516;2023-08-21T08:18:40;10.20;;;6.65;;
12155;SDS011;6141;49.092;8.516;2023-08-21T08:21:08;7.70;;;6.57;;
12155;SDS011;6141;49.092;8.516;2023-08-21T08:23:37;10.20;;;7.63;;
12155;SDS011;6141;49.092;8.516;2023-08-21T08:26:05;11.45;;;6.50;;
12155;SDS011;6141;49.092;8.516;2023-08-21T08:28:36;7.55;;;6.65;;
12155;SDS011;6141;49.092;8.516;2023-08-21T08:31:05;10.13;;;6.28;;
12155;SDS011;6141;49.092;8.516;2023-08-21T08:33:34;6.55;;;5.68;;
12155;SDS011;6141;49.092;8.516;2023-08-21T08:36:02;7.00;;;6.10;;
12155;SDS011;6141;49.092;8.516;2023-08-21T08:38:31;6.40;;;5.80;;
12155;SDS011;6141;49.092;8.516;2023-08-21T08:41:01;7.75;;;5.60;;
12155;SDS011;6141;49.092;8.516;2023-08-21T08:43:30;6.32;;;5.72;;
12155;SDS011;6141;49.092;8.516;2023-08-21T08:46:00;8.00;;;5.70;;
12155;SDS011;6141;49.092;8.516;2023-08-21T08:48:30;6.95;;;6.07;;
12155;SDS011;6141;49.092;8.516;2023-08-21T08:50:58;9.57;;;6.15;;
12155;SDS011;6141;49.092;8.516;2023-08-21T08:53:26;7.85;;;5.72;;
12155;SDS011;6141;49.092;8.516;2023-08-21T08:55:56;6.57;;;5.47;;
12155;SDS011;6141;49.092;8.516;2023-08-21T08:58:25;9.90;;;6.53;;
12155;SDS011;6141;49.092;8.516;2023-08-21T09:00:53;7.97;;;6.15;;
12155;SDS011;6141;49.092;8.516;2023-08-21T09:03:23;8.70;;;5.90;;
12155;SDS011;6141;49.092;8.516;2023-08-21T09:05:51;6.47;;;5.80;;
12155;SDS011;6141;49.092;8.516;2023-08-21T09:08:19;8.80;;;6.47;;
12155;SDS011;6141;49.092;8.516;2023-08-21T09:10:47;7.80;;;6.47;;
12155;SDS011;6141;49.092;8.516;2023-08-21T09:13:16;6.70;;;6.00;;
12155;SDS011;6141;49.092;8.516;2023-08-21T09:15:45;6.88;;;6.18;;
12155;SDS011;6141;49.092;8.516;2023-08-21T09:18:15;7.60;;;6.03;;
12155;SDS011;6141;49.092;8.516;2023-08-21T09:20:44;6.45;;;5.85;;
12155;SDS011;6141;49.092;8.516;2023-08-21T09:23:14;8.68;;;6.00;;
12155;SDS011;6141;49.092;8.516;2023-08-21T09:25:44;6.15;;;5.65;;
12155;SDS011;6141;49.092;8.516;2023-08-21T09:28:14;7.15;;;5.88;;
12155;SDS011;6141;49.092;8.516;2023-08-21T09:30:46;8.90;;;6.00;;
12155;SDS011;6141;49.092;8.516;2023-08-21T09:33:19;8.50;;;5.72;;
12155;SDS011;6141;49.092;8.516;2023-08-21T09:35:50;5.88;;;5.28;;
12155;SDS011;6141;49.092;8.516;2023-08-21T09:38:20;7.90;;;5.80;;
12155;SDS011;6141;49.092;8.516;2023-08-21T09:40:52;7.63;;;5.95;;
12155;SDS011;6141;49.092;8.516;2023-08-21T09:43:22;7.43;;;6.28;;
12155;SDS011;6141;49.092;8.516;2023-08-21T09:45:53;8.63;;;6.38;;
12155;SDS011;6141;49.092;8.516;2023-08-21T09:48:23;6.53;;;5.93;;
12155;SDS011;6141;49.092;8.516;2023-08-21T09:50:55;6.88;;;5.95;;
12155;SDS011;6141;49.092;8.516;2023-08-21T09:53:24;8.40;;;5.22;;
12155;SDS011;6141;49.092;8.516;2023-08-21T09:55:53;10.63;;;5.57;;
12155;SDS011;6141;49.092;8.516;2023-08-21T09:58:22;7.75;;;6.07;;
12155;SDS011;6141;49.092;8.516;2023-08-21T10:00:51;6.70;;;5.97;;
12155;SDS011;6141;49.092;8.516;2023-08-21T10:03:23;9.25;;;5.88;;
12155;SDS011;6141;49.092;8.516;2023-08-21T10:05:56;7.15;;;5.95;;
12155;SDS011;6141;49.092;8.516;2023-08-21T10:08:25;6.35;;;5.40;;
12155;SDS011;6141;49.092;8.516;2023-08-21T10:10:56;6.07;;;5.53;;
12155;SDS011;6141;49.092;8.516;2023-08-21T10:13:28;6.68;;;5.38;;
12155;SDS011;6141;49.092;8.516;2023-08-21T10:15:56;9.35;;;5.40;;
12155;SDS011;6141;49.092;8.516;2023-08-21T10:18:29;8.60;;;5.65;;
12155;SDS011;6141;49.092;8.516;2023-08-21T10:21:11;6.93;;;5.32;;
12155;SDS011;6141;49.092;8.516;2023-08-21T10:23:42;6.47;;;5.75;;
12155;SDS011;6141;49.092;8.516;2023-08-21T10:26:13;6.30;;;5.47;;
12155;SDS011;6141;49.092;8.516;2023-08-21T10:28:42;10.13;;;4.75;;
12155;SDS011;6141;49.092;8.516;2023-08-21T10:31:28;5.35;;;4.75;;
12155;SDS011;6141;49.092;8.516;2023-08-21T10:33:58;5.82;;;4.68;;
12155;SDS011;6141;49.092;8.516;2023-08-21T10:37:02;5.63;;;4.65;;
12155;SDS011;6141;49.092;8.516;2023-08-21T10:39:34;6.57;;;4.68;;
12155;SDS011;6141;49.092;8.516;2023-08-21T10:42:05;5.88;;;4.10;;
12155;SDS011;6141;49.092;8.516;2023-08-21T10:44:35;5.78;;;4.28;;
12155;SDS011;6141;49.092;8.516;2023-08-21T10:47:15;5.63;;;4.05;;
12155;SDS011;6141;49.092;8.516;2023-08-21T10:49:45;6.80;;;4.38;;
12155;SDS011;6141;49.092;8.516;2023-08-21T10:52:15;6.63;;;4.50;;
12155;SDS011;6141;49.092;8.516;2023-08-21T10:54:49;4.15;;;3.72;;
12155;SDS011;6141;49.092;8.516;2023-08-21T10:57:19;5.50;;;4.22;;
12155;SDS011;6141;49.092;8.516;2023-08-21T10:59:51;5.95;;;4.40;;
12155;SDS011;6141;49.092;8.516;2023-08-21T11:02:20;5.30;;;3.75;;
12155;SDS011;6141;49.092;8.516;2023-08-21T11:04:48;5.05;;;4.10;;
12155;SDS011;6141;49.092;8.516;2023-08-21T11:07:18;4.45;;;4.05;;
12155;SDS011;6141;49.092;8.516;2023-08-21T11:09:47;5.28;;;3.53;;
12155;SDS011;6141;49.092;8.516;2023-08-21T11:12:16;4.65;;;3.58;;
12155;SDS011;6141;49.092;8.516;2023-08-21T11:14:46;6.10;;;3.83;;
12155;SDS011;6141;49.092;8.516;2023-08-21T11:17:14;5.90;;;3.75;;
12155;SDS011;6141;49.092;8.516;2023-08-21T11:19:44;4.38;;;3.92;;
12155;SDS011;6141;49.092;8.516;2023-08-21T11:22:14;4.80;;;4.22;;
12155;SDS011;6141;49.092;8.516;2023-08-21T11:24:45;5.40;;;3.47;;
12155;SDS011;6141;49.092;8.516;2023-08-21T11:27:14;3.72;;;3.42;;
12155;SDS011;6141;49.092;8.516;2023-08-21T11:29:46;5.32;;;3.90;;
12155;SDS011;6141;49.092;8.516;2023-08-21T11:32:16;3.85;;;3.45;;
12155;SDS011;6141;49.092;8.516;2023-08-21T11:34:47;5.75;;;4.18;;
12155;SDS011;6141;49.092;8.516;2023-08-21T11:37:18;5.95;;;4.00;;
12155;SDS011;6141;49.092;8.516;2023-08-21T11:39:50;7.55;;;4.05;;
12155;SDS011;6141;49.092;8.516;2023-08-21T11:42:20;5.05;;;3.80;;
12155;SDS011;6141;49.092;8.516;2023-08-21T11:44:50;4.90;;;3.63;;
12155;SDS011;6141;49.092;8.516;2023-08-21T11:47:19;5.63;;;3.70;;
12155;SDS011;6141;49.092;8.516;2023-08-21T11:49:48;4.32;;;3.50;;
12155;SDS011;6141;49.092;8.516;2023-08-21T11:52:18;4.60;;;3.60;;
12155;SDS011;6141;49.092;8.516;2023-08-21T11:54:47;4.80;;;3.85;;
12155;SDS011;6141;49.092;8.516;2023-08-21T11:57:19;4.63;;;3.67;;
12155;SDS011;6141;49.092;8.516;2023-08-21T11:59:51;6.05;;;3.83;;
12155;SDS011;6141;49.092;8.516;2023-08-21T12:02:21;5.88;;;3.95;;
12155;SDS011;6141;49.092;8.516;2023-08-21T12:04:53;6.97;;;4.00;;
12155;SDS011;6141;49.092;8.516;2023-08-21T12:07:28;5.30;;;4.15;;
12155;SDS011;6141;49.092;8.516;2023-08-21T12:09:56;5.03;;;4.10;;
12155;SDS011;6141;49.092;8.516;2023-08-21T12:12:26;4.35;;;3.78;;
12155;SDS011;6141;49.092;8.516;2023-08-21T12:14:54;4.72;;;3.75;;
12155;SDS011;6141;49.092;8.516;2023-08-21T12:17:23;5.65;;;4.15;;
12155;SDS011;6141;49.092;8.516;2023-08-21T12:19:51;5.65;;;4.55;;
12155;SDS011;6141;49.092;8.516;2023-08-21T12:22:19;5.15;;;3.55;;
12155;SDS011;6141;49.092;8.516;2023-08-21T12:24:47;6.15;;;4.32;;
12155;SDS011;6141;49.092;8.516;2023-08-21T12:27:15;4.57;;;3.75;;
12155;SDS011;6141;49.092;8.516;2023-08-21T12:29:44;5.65;;;4.05;;
12155;SDS011;6141;49.092;8.516;2023-08-21T12:32:14;7.47;;;4.65;;
12155;SDS011;6141;49.092;8.516;2023-08-21T12:34:43;4.05;;;3.65;;
12155;SDS011;6141;49.092;8.516;2023-08-21T12:37:11;6.68;;;4.22;;
12155;SDS011;6141;49.092;8.516;2023-08-21T12:39:42;7.68;;;4.22;;
12155;SDS011;6141;49.092;8.516;2023-08-21T12:42:10;6.80;;;4.60;;
12155;SDS011;6141;49.092;8.516;2023-08-21T12:44:39;7.35;;;4.22;;
12155;SDS011;6141;49.092;8.516;2023-08-21T12:47:10;4.95;;;4.35;;
12155;SDS011;6141;49.092;8.516;2023-08-21T12:49:38;6.40;;;4.45;;
12155;SDS011;6141;49.092;8.516;2023-08-21T12:52:06;4.95;;;4.40;;
12155;SDS011;6141;49.092;8.516;2023-08-21T12:54:36;6.97;;;4.70;;
12155;SDS011;6141;49.092;8.516;2023-08-21T12:57:04;4.90;;;4.30;;
12155;SDS011;6141;49.092;8.516;2023-08-21T12:59:33;6.38;;;4.07;;
12155;SDS011;6141;49.092;8.516;2023-08-21T13:02:02;5.20;;;3.80;;
12155;SDS011;6141;49.092;8.516;2023-08-21T13:04:33;5.28;;;4.00;;
12155;SDS011;6141;49.092;8.516;2023-08-21T13:07:01;4.95;;;3.90;;
12155;SDS011;6141;49.092;8.516;2023-08-21T13:09:29;4.40;;;3.90;;
12155;SDS011;6141;49.092;8.516;2023-08-21T13:11:57;4.95;;;4.20;;
12155;SDS011;6141;49.092;8.516;2023-08-21T13:14:25;6.40;;;4.03;;
12155;SDS011;6141;49.092;8.516;2023-08-21T13:16:58;5.20;;;3.60;;
12155;SDS011;6141;49.092;8.516;2023-08-21T13:19:26;8.10;;;4.55;;
12155;SDS011;6141;49.092;8.516;2023-08-21T13:21:55;4.50;;;4.10;;
12155;SDS011;6141;49.092;8.516;2023-08-21T13:24:23;4.20;;;3.80;;
12155;SDS011;6141;49.092;8.516;2023-08-21T13:26:52;6.03;;;4.30;;
12155;SDS011;6141;49.092;8.516;2023-08-21T13:29:20;4.30;;;3.90;;
12155;SDS011;6141;49.092;8.516;2023-08-21T13:31:49;4.65;;;3.85;;
12155;SDS011;6141;49.092;8.516;2023-08-21T13:34:17;6.47;;;4.00;;
12155;SDS011;6141;49.092;8.516;2023-08-21T13:36:45;6.82;;;4.10;;
12155;SDS011;6141;49.092;8.516;2023-08-21T13:39:15;6.70;;;4.47;;
12155;SDS011;6141;49.092;8.516;2023-08-21T13:41:43;5.97;;;4.05;;
12155;SDS011;6141;49.092;8.516;2023-08-21T13:44:11;4.47;;;3.75;;
12155;SDS011;6141;49.092;8.516;2023-08-21T13:46:39;5.93;;;3.95;;
12155;SDS011;6141;49.092;8.516;2023-08-21T13:49:09;6.35;;;3.72;;
12155;SDS011;6141;49.092;8.516;2023-08-21T13:51:37;5.05;;;4.00;;
12155;SDS011;6141;49.092;8.516;2023-08-21T13:54:05;5.88;;;3.75;;
12155;SDS011;6141;49.092;8.516;2023-08-21T13:56:34;4.85;;;3.72;;
12155;SDS011;6141;49.092;8.516;2023-08-21T13:59:02;5.57;;;3.60;;
12155;SDS011;6141;49.092;8.516;2023-08-21T14:01:30;5.20;;;3.60;;
12155;SDS011;6141;49.092;8.516;2023-08-21T14:03:58;5.45;;;3.60;;
12155;SDS011;6141;49.092;8.516;2023-08-21T14:06:26;5.03;;;3.50;;
12155;SDS011;6141;49.092;8.516;2023-08-21T14:08:55;5.13;;;3.97;;
12155;SDS011;6141;49.092;8.516;2023-08-21T14:11:23;9.77;;;3.90;;
12155;SDS011;6141;49.092;8.516;2023-08-21T14:13:53;5.05;;;3.95;;
12155;SDS011;6141;49.092;8.516;2023-08-21T14:16:21;5.07;;;3.65;;
12155;SDS011;6141;49.092;8.516;2023-08-21T14:18:49;5.07;;;3.72;;
12155;SDS011;6141;49.092;8.516;2023-08-21T14:21:17;7.20;;;4.47;;
12155;SDS011;6141;49.092;8.516;2023-08-21T14:23:46;7.25;;;3.88;;
12155;SDS011;6141;49.092;8.516;2023-08-21T14:26:14;5.85;;;3.47;;
12155;SDS011;6141;49.092;8.516;2023-08-21T14:28:42;5.72;;;3.10;;
12155;SDS011;6141;49.092;8.516;2023-08-21T14:31:17;5.45;;;3.20;;
12155;SDS011;6141;49.092;8.516;2023-08-21T14:33:46;4.72;;;3.55;;
12155;SDS011;6141;49.092;8.516;2023-08-21T14:36:14;5.05;;;3.45;;
12155;SDS011;6141;49.092;8.516;2023-08-21T14:38:42;6.88;;;3.50;;
12155;SDS011;6141;49.092;8.516;2023-08-21T14:41:11;7.93;;;3.70;;
12155;SDS011;6141;49.092;8.516;2023-08-21T14:43:39;5.00;;;3.38;;
12155;SDS011;6141;49.092;8.516;2023-08-21T14:46:08;5.50;;;3.22;;
12155;SDS011;6141;49.092;8.516;2023-08-21T14:48:38;4.57;;;3.20;;
12155;SDS011;6141;49.092;8.516;2023-08-21T14:51:06;4.07;;;3.00;;
12155;SDS011;6141;49.092;8.516;2023-08-21T14:53:35;5.03;;;3.30;;
12155;SDS011;6141;49.092;8.516;2023-08-21T14:56:04;5.13;;;3.13;;
12155;SDS011;6141;49.092;8.516;2023-08-21T14:58:32;4.28;;;3.15;;
12155;SDS011;6141;49.092;8.516;2023-08-21T15:01:00;4.25;;;3.30;;
12155;SDS011;6141;49.092;8.516;2023-08-21T15:03:28;4.35;;;3.95;;
12155;SDS011;6141;49.092;8.516;2023-08-21T15:05:58;3.55;;;3.15;;
12155;SDS011;6141;49.092;8.516;2023-08-21T15:08:26;3.83;;;3.20;;
12155;SDS011;6141;49.092;8.516;2023-08-21T15:10:55;7.20;;;3.50;;
12155;SDS011;6141;49.092;8.516;2023-08-21T15:13:23;5.22;;;3.30;;